CTSO2: Bird Creek At Catoosa

Data processed at Mon 03Oct2022 03:33 GMT


All information presented herein is the property of the government of the United States of America and may be revised or deleted at any time without prior notice.
Dissemination of this information without the expressed written consent of the Public Affairs Office, Tulsa District U.S. Army Corps of Engineers is strictly prohibited.
These data are gathered electronically and, as presented, have not undergone any form of quality control. These data are not guaranteed to be valid or correct.
Go to home page.
Go to station list.

Upstream stations:

Downstream station:
Previous Day
Next Day
Current Day


                            
SHEF ID:       CTSO2     Bird Ck at State Highway 266 nea
STATION TYPE:  
Regulating: Stage =    26.00, Flow =    20306

                STAGE  STAGE(2)  RIV-FLOW  WTR-TEMP   DIS-OXY        PH   CONDUCT  BAT-LOAD
                   ft        ft       cfs         F      mg/l        su   umho/cm      volt
              Ccp-Rev   Ccp-Rev   Ccp-Rev   Ccp-Rev   Ccp-Rev   Ccp-Rev   Ccp-Rev   Ccp-Rev
(US/Central)
10/02 00:00      4.35      3.42       206     69.84      8.30      7.88       283     12.63
10/02 01:00      4.35      3.42       206     69.91      8.37      7.89       324     12.60
10/02 02:00      4.36      3.43       209     69.91      8.38      7.91       283     12.57
10/02 03:00      4.33      3.43       202     69.82      8.33      7.92       305     12.55
10/02 04:00      4.34      3.42       204     69.67      8.29      7.92       335     12.52
10/02 05:00      4.32      3.42       200     69.53      8.23      7.93       189     12.50
10/02 06:00      4.30      3.43       195     69.39      8.15      7.93       273     12.47
10/02 07:00      4.30      3.43       195     69.37      8.13      7.93       233     12.44
10/02 08:00      4.31      3.42       197     69.57      8.13      7.93       230     12.50
10/02 09:00      4.30      3.42       195     69.76      8.16      7.92       238     13.74
10/02 10:00      4.31      3.43       197     69.89      8.16      7.92       255     13.65
10/02 11:00      4.31      3.42       197     70.00      8.09      7.91       329     13.32
10/02 12:00      4.33      3.42       202     69.98      8.11      7.90       314     13.22
10/02 13:00      4.34      3.42       204     69.89      8.12      7.88       296     13.14
10/02 14:00      4.36      3.42       209     69.75      8.09      7.89       280     13.11
10/02 15:00      4.38      3.42       213     69.66      8.10      7.88       281     13.11
10/02 16:00      4.37      3.42       211     69.62      8.12      7.87       306     13.07
10/02 17:00      4.38      3.42       213     69.57      8.13      7.87       228     13.07
10/02 18:00      4.37      3.42       211     69.40      8.14      7.86       243     13.03
10/02 19:00      4.36      3.42       209     69.24      8.11      7.87       302     12.90
10/02 20:00      4.37      3.42       211     69.19      8.10      7.86       254     12.73
10/02 21:00      4.33      3.42       202     69.15      8.07      7.85       291     12.69
10/02 22:00      4.35      3.42       206     69.12      8.10      7.85       275     12.67
10/02 23:00      ----      ----      ----      ----      ----      ----      ----      ----